Time;durP1;ratioP1;P1;durP2;ratioP2;P2;SDS_P1;SDS_P2;PMS_P1;PMS_P2;Temp;Humidity;BMP_temperature;BMP_pressure;BME280_temperature;BME280_humidity;BME280_pressure;Samples;Min_cycle;Max_cycle;Signal;HPM_P1;HPM_P2
2022/09/19 00:04:40;;;;;;;;;;;;;;;6.77;84.44;97722.50;5077952;28;20346;-68
2022/09/19 00:07:11;;;;;;;;;;;;;;;6.77;84.41;97719.00;5034330;28;19960;-67
2022/09/19 00:09:40;;;;;;;;;;;;;;;6.75;84.98;97721.97;5052247;28;19928;-66
2022/09/19 00:12:08;;;;;;;;;;;;;;;6.76;85.03;97728.97;5067939;28;20371;-66
2022/09/19 00:14:38;;;;;;;;;;;;;;;6.77;84.44;97727.91;5068474;28;19924;-66
2022/09/19 00:17:07;;;;;;;;;;;;;;;6.80;84.46;97718.41;5066756;28;19928;-65
2022/09/19 00:19:35;;;;;;;;;;;;;;;6.80;84.08;97718.41;5068767;28;19925;-65
2022/09/19 00:22:03;;;;;;;;;;;;;;;6.82;84.73;97722.44;5068396;28;19951;-66
2022/09/19 00:24:49;;;;;;;;;;;;;;;6.87;85.13;97729.66;5068752;28;19925;-64
2022/09/19 00:27:19;;;;;;;;;;;;;;;6.91;85.27;97722.56;5068290;28;20042;-66
2022/09/19 00:29:48;;;;;;;;;;;;;;;6.90;84.53;97726.38;5082614;28;19925;-65
2022/09/19 00:32:16;;;;;;;;;;;;;;;6.90;84.07;97733.66;5050626;28;19929;-65
2022/09/19 00:34:47;;;;;;;;;;;;;;;6.87;84.09;97720.72;5059994;28;19924;-65
2022/09/19 00:37:18;;;;;;;;;;;;;;;6.88;84.32;97723.16;5069463;28;20022;-63
2022/09/19 00:39:46;;;;;;;;;;;;;;;6.84;83.76;97716.72;5085665;28;19939;-64
2022/09/19 00:42:15;;;;;;;;;;;;;;;6.83;83.61;97732.13;5065684;28;19931;-67
2022/09/19 00:45:02;;;;;;;;;;;;;;;6.81;83.86;97725.41;5067102;28;19928;-58
2022/09/19 00:47:35;;;;;;;;;;;;;;;6.79;83.64;97717.59;5069109;28;19958;-67
2022/09/19 00:50:03;;;;;;;;;;;;;;;6.78;84.09;97716.00;5065481;28;19928;-67
2022/09/19 00:52:33;;;;;;;;;;;;;;;6.81;84.28;97715.41;5066947;28;19936;-67
2022/09/19 00:55:01;;;;;;;;;;;;;;;6.80;83.94;97713.00;5066673;28;19929;-68
2022/09/19 00:57:36;;;;;;;;;;;;;;;6.76;83.28;97707.38;5067649;28;19928;-69
2022/09/19 01:00:06;;;;;;;;;;;;;;;6.75;83.30;97704.97;5066144;28;19925;-68
2022/09/19 01:02:36;;;;;;;;;;;;;;;6.77;83.69;97717.09;5071043;28;20019;-67
2022/09/19 01:05:07;;;;;;;;;;;;;;;6.77;83.72;97714.41;5066579;28;19925;-66
2022/09/19 01:07:45;;;;;;;;;;;;;;;6.80;83.51;97721.09;5065608;28;19931;-68
2022/09/19 01:10:20;;;;;;;;;;;;;;;6.81;82.91;97723.50;5080172;28;20405;-65
2022/09/19 01:12:52;;;;;;;;;;;;;;;6.81;82.90;97726.19;5060054;28;20021;-68
2022/09/19 01:15:24;;;;;;;;;;;;;;;6.80;82.70;97724.59;5067676;28;19925;-66
2022/09/19 01:17:52;;;;;;;;;;;;;;;6.86;82.71;97732.63;5077406;28;19925;-64
2022/09/19 01:20:32;;;;;;;;;;;;;;;6.86;82.05;97717.22;5070640;28;19928;-68
2022/09/19 01:23:05;;;;;;;;;;;;;;;6.87;82.84;97720.72;5067222;28;20011;-60
2022/09/19 01:25:46;;;;;;;;;;;;;;;6.86;82.90;97728.03;5067865;28;19935;-65
2022/09/19 01:28:21;;;;;;;;;;;;;;;6.87;82.92;97716.16;5066652;28;19925;-67
2022/09/19 01:33:39;;;;;;;;;;;;;;;6.87;81.57;97716.16;5065416;28;19924;-67
2022/09/19 01:36:09;;;;;;;;;;;;;;;6.86;81.89;97717.22;5064208;28;19936;-68
2022/09/19 01:38:40;;;;;;;;;;;;;;;6.87;81.24;97716.16;5065016;28;19931;-67
2022/09/19 01:41:12;;;;;;;;;;;;;;;6.86;81.85;97722.63;5067968;28;20323;-67
2022/09/19 01:43:45;;;;;;;;;;;;;;;6.98;81.25;97725.72;5067685;28;20028;-68
2022/09/19 01:46:17;;;;;;;;;;;;;;;6.96;81.24;97736.00;5075214;28;20753;-67
2022/09/19 01:48:47;;;;;;;;;;;;;;;6.93;81.62;97733.91;5067313;28;19925;-67
2022/09/19 01:51:19;;;;;;;;;;;;;;;6.98;81.56;97741.13;5079601;28;19924;-68
2022/09/19 01:53:50;;;;;;;;;;;;;;;6.98;81.46;97746.53;5063994;28;19924;-68
2022/09/19 01:56:32;;;;;;;;;;;;;;;6.98;81.45;97752.72;5064514;28;20428;-68
2022/09/19 01:59:28;;;;;;;;;;;;;;;6.95;81.40;97742.50;5084514;28;19928;-68
2022/09/19 02:02:00;;;;;;;;;;;;;;;6.99;81.77;97740.81;5082727;28;19972;-68
2022/09/19 02:07:23;;;;;;;;;;;;;;;7.06;81.28;97729.66;5069978;28;20043;-68
2022/09/19 02:09:53;;;;;;;;;;;;;;;7.08;81.85;97735.56;5080599;28;19924;-68
2022/09/19 02:12:23;;;;;;;;;;;;;;;7.02;81.84;97728.63;5090477;28;20015;-68
2022/09/19 02:15:11;;;;;;;;;;;;;;;7.00;82.08;97734.31;5070296;28;20377;-68
2022/09/19 02:17:50;;;;;;;;;;;;;;;7.02;82.12;97736.72;5089083;28;19932;-67
2022/09/19 02:20:20;;;;;;;;;;;;;;;7.01;82.51;97735.13;5089017;28;19936;-68
2022/09/19 02:22:49;;;;;;;;;;;;;;;7.07;82.52;97728.53;5085667;28;19931;-61
2022/09/19 02:25:20;;;;;;;;;;;;;;;7.03;82.38;97735.63;5074892;28;19929;-64
2022/09/19 02:27:50;;;;;;;;;;;;;;;7.08;82.53;97732.84;5072865;28;20018;-68
2022/09/19 02:30:20;;;;;;;;;;;;;;;7.07;82.59;97733.94;5071654;28;20450;-64
2022/09/19 02:32:55;;;;;;;;;;;;;;;7.08;82.45;97719.34;5073794;28;19928;-68
2022/09/19 02:35:24;;;;;;;;;;;;;;;7.07;82.57;97744.75;5088247;28;20013;-67
2022/09/19 02:37:55;;;;;;;;;;;;;;;7.07;82.42;97753.66;5070859;28;20019;-67
2022/09/19 02:40:26;;;;;;;;;;;;;;;7.13;82.08;97751.69;5087869;28;19955;-65
2022/09/19 02:42:55;;;;;;;;;;;;;;;7.15;82.13;97752.22;5066683;28;20034;-67
2022/09/19 02:45:26;;;;;;;;;;;;;;;7.13;82.03;97742.78;5073097;28;19924;-68
2022/09/19 02:48:03;;;;;;;;;;;;;;;7.16;82.13;97751.13;5080116;28;19927;-68
2022/09/19 02:50:59;;;;;;;;;;;;;;;7.16;81.91;97732.19;5070865;28;19932;-63
2022/09/19 02:53:31;;;;;;;;;;;;;;;7.17;82.64;97744.59;5071736;28;19924;-68
2022/09/19 02:55:59;;;;;;;;;;;;;;;7.24;81.82;97755.84;5079061;28;19928;-69
2022/09/19 02:58:28;;;;;;;;;;;;;;;7.21;82.24;97755.66;5069789;28;19928;-68
2022/09/19 03:00:59;;;;;;;;;;;;;;;7.24;82.35;97758.53;5071732;28;19935;-68
2022/09/19 03:04:14;;;;;;;;;;;;;;;7.23;82.23;97762.34;5067494;28;20342;-66
2022/09/19 03:06:52;;;;;;;;;;;;;;;7.27;82.30;97768.78;5088444;28;19966;-67
2022/09/19 03:09:21;;;;;;;;;;;;;;;7.29;82.43;97765.78;5086487;28;19924;-68
2022/09/19 03:11:55;;;;;;;;;;;;;;;7.31;81.99;97767.09;5073580;28;19931;-68
2022/09/19 03:14:24;;;;;;;;;;;;;;;7.39;81.77;97765.63;5090199;28;19932;-69
2022/09/19 03:16:56;;;;;;;;;;;;;;;7.40;81.71;97767.22;5069877;28;21237;-67
2022/09/19 03:19:25;;;;;;;;;;;;;;;7.34;81.69;97771.91;5072491;28;19924;-69
2022/09/19 03:21:58;;;;;;;;;;;;;;;7.37;81.90;97761.63;5087690;28;19964;-68
2022/09/19 03:24:30;;;;;;;;;;;;;;;7.42;81.96;97775.06;5072199;28;20368;-69
2022/09/19 03:27:25;;;;;;;;;;;;;;;7.41;81.55;97774.25;5089362;28;20376;-68
2022/09/19 03:29:53;;;;;;;;;;;;;;;7.40;82.08;97775.34;5070391;28;20115;-67
2022/09/19 03:32:26;;;;;;;;;;;;;;;7.49;82.29;97775.47;5070922;28;19963;-68
2022/09/19 03:34:55;;;;;;;;;;;;;;;7.47;81.67;97781.19;5070658;28;20015;-68
2022/09/19 03:37:25;;;;;;;;;;;;;;;7.43;82.14;97788.28;5072063;28;20009;-68
2022/09/19 03:39:53;;;;;;;;;;;;;;;7.41;82.32;97781.56;5073709;28;19991;-66
2022/09/19 03:42:21;;;;;;;;;;;;;;;7.42;82.63;97777.75;5074409;28;19934;-67
2022/09/19 03:44:48;;;;;;;;;;;;;;;7.43;82.06;97787.47;5070120;28;19931;-69
2022/09/19 03:47:16;;;;;;;;;;;;;;;7.45;82.30;97788.78;5071570;28;19924;-68
2022/09/19 03:49:49;;;;;;;;;;;;;;;7.45;82.48;97788.78;5080647;28;20018;-68
2022/09/19 03:52:17;;;;;;;;;;;;;;;7.48;82.42;97787.41;5078339;28;20388;-68
2022/09/19 03:54:47;;;;;;;;;;;;;;;7.46;82.66;97792.31;5070976;28;20308;-68
2022/09/19 03:57:15;;;;;;;;;;;;;;;7.46;82.51;97797.72;5087076;28;20006;-67
2022/09/19 03:59:43;;;;;;;;;;;;;;;7.47;82.49;97805.50;5087587;28;19927;-67
2022/09/19 04:02:11;;;;;;;;;;;;;;;7.50;82.55;97801.41;5082752;28;20486;-65
2022/09/19 04:04:40;;;;;;;;;;;;;;;7.47;82.47;97812.81;5064523;28;19925;-68
2022/09/19 04:07:28;;;;;;;;;;;;;;;7.52;82.69;97804.63;5083870;28;19924;-68
2022/09/19 04:10:18;;;;;;;;;;;;;;;7.55;82.62;97809.44;5063575;28;19936;-69
2022/09/19 04:13:00;;;;;;;;;;;;;;;7.59;82.34;97816.66;5067903;28;19924;-68
2022/09/19 04:15:33;;;;;;;;;;;;;;;7.53;82.41;97817.06;5068376;28;20377;-65
2022/09/19 04:18:04;;;;;;;;;;;;;;;7.57;82.48;97815.38;5071178;28;19925;-69
2022/09/19 04:20:32;;;;;;;;;;;;;;;7.60;82.00;97828.28;5066931;28;20096;-63
2022/09/19 04:23:35;;;;;;;;;;;;;;;7.58;82.17;97820.47;5054705;28;20440;-68
2022/09/19 04:26:32;;;;;;;;;;;;;;;7.63;81.89;97821.50;5042297;28;19939;-69
2022/09/19 04:29:02;;;;;;;;;;;;;;;7.69;82.01;97826.53;5065122;28;20369;-67
2022/09/19 04:31:37;;;;;;;;;;;;;;;7.66;82.34;97827.09;5083307;28;19924;-67
2022/09/19 04:34:08;;;;;;;;;;;;;;;7.68;82.49;97834.94;5081170;28;19928;-68
2022/09/19 04:36:36;;;;;;;;;;;;;;;7.66;82.57;97842.53;5066866;28;20018;-69
2022/09/19 04:39:03;;;;;;;;;;;;;;;7.66;82.85;97846.03;5058146;28;19978;-69
2022/09/19 04:41:38;;;;;;;;;;;;;;;7.69;82.58;97847.38;5067277;28;19929;-62
2022/09/19 04:44:07;;;;;;;;;;;;;;;7.67;82.56;97841.44;5045458;28;19925;-68
2022/09/19 04:47:10;;;;;;;;;;;;;;;7.67;82.56;97839.56;5063853;28;20377;-68
2022/09/19 04:49:39;;;;;;;;;;;;;;;7.70;82.72;97838.16;5065752;28;19924;-68
2022/09/19 04:52:17;;;;;;;;;;;;;;;7.70;82.38;97852.47;5067218;28;19956;-68
2022/09/19 04:54:47;;;;;;;;;;;;;;;7.72;82.51;97852.16;5064024;28;19924;-60
2022/09/19 04:57:17;;;;;;;;;;;;;;;7.71;82.54;97856.78;5065199;28;20011;-64
2022/09/19 04:59:46;;;;;;;;;;;;;;;7.75;82.65;97857.81;5066074;28;19963;-59
2022/09/19 05:02:18;;;;;;;;;;;;;;;7.75;82.38;97863.22;5060684;28;19986;-69
2022/09/19 05:04:46;;;;;;;;;;;;;;;7.77;82.59;97855.59;5050171;28;19970;-65
2022/09/19 05:07:20;;;;;;;;;;;;;;;7.79;82.19;97871.56;5065355;28;19977;-68
2022/09/19 05:09:50;;;;;;;;;;;;;;;7.79;81.82;97877.75;5083625;28;19928;-65
2022/09/19 05:12:32;;;;;;;;;;;;;;;7.82;81.95;97887.97;5077829;28;19929;-65
2022/09/19 05:15:00;;;;;;;;;;;;;;;7.79;82.45;97875.06;5066210;28;19924;-68
2022/09/19 05:17:30;;;;;;;;;;;;;;;7.81;82.34;97882.88;5079577;28;19978;-64
2022/09/19 05:19:57;;;;;;;;;;;;;;;7.81;82.29;97889.06;5068630;28;19928;-68
2022/09/19 05:22:26;;;;;;;;;;;;;;;7.80;82.34;97894.78;5050077;28;19925;-68
2022/09/19 05:24:54;;;;;;;;;;;;;;;7.84;82.27;97906.63;5082078;28;19932;-66
2022/09/19 05:27:35;;;;;;;;;;;;;;;7.84;82.22;97898.53;5065136;28;19971;-61
2022/09/19 05:30:03;;;;;;;;;;;;;;;7.85;82.38;97900.13;5079779;28;19988;-68
2022/09/19 05:32:34;;;;;;;;;;;;;;;7.85;82.50;97903.63;5063207;28;20436;-62
2022/09/19 05:35:10;;;;;;;;;;;;;;;7.87;82.32;97912.25;5062460;28;19931;-66
2022/09/19 05:37:51;;;;;;;;;;;;;;;7.91;82.65;97926.00;5066391;28;20014;-65
2022/09/19 05:40:54;;;;;;;;;;;;;;;7.93;82.37;97921.09;5071813;28;20096;-66
2022/09/19 05:43:41;;;;;;;;;;;;;;;8.00;82.11;97915.31;5060462;28;19928;-63
2022/09/19 05:46:09;;;;;;;;;;;;;;;8.03;81.60;97922.84;5081985;28;19924;-67
2022/09/19 05:48:40;;;;;;;;;;;;;;;8.05;81.62;97928.78;5063811;28;20377;-68
2022/09/19 05:51:08;;;;;;;;;;;;;;;8.04;82.05;97925.28;5080553;28;20074;-64
2022/09/19 05:53:55;;;;;;;;;;;;;;;8.04;81.55;97929.84;5068572;28;19924;-66
2022/09/19 05:56:32;;;;;;;;;;;;;;;8.13;81.60;97926.19;5068961;28;19928;-66
2022/09/19 05:59:04;;;;;;;;;;;;;;;8.11;81.68;97941.13;5067243;28;20603;-66
2022/09/19 06:01:56;;;;;;;;;;;;;;;8.10;81.93;97939.53;5064533;28;19932;-67
2022/09/19 06:04:39;;;;;;;;;;;;;;;8.12;81.81;97948.94;5062924;28;19964;-67
2022/09/19 06:07:09;;;;;;;;;;;;;;;8.11;82.15;97946.53;5081851;28;19925;-65
2022/09/19 06:09:42;;;;;;;;;;;;;;;8.14;81.76;97943.22;5064705;28;19929;-68
2022/09/19 06:12:10;;;;;;;;;;;;;;;8.15;81.88;97947.56;5065633;28;19925;-63
2022/09/19 06:14:39;;;;;;;;;;;;;;;8.17;82.03;97950.78;5065753;28;20393;-66
2022/09/19 06:17:13;;;;;;;;;;;;;;;8.14;82.12;97957.56;5061926;28;19924;-61
2022/09/19 06:20:06;;;;;;;;;;;;;;;8.18;82.01;97960.50;5063625;28;19935;-66
2022/09/19 06:22:44;;;;;;;;;;;;;;;8.20;81.94;97965.59;5065241;28;19932;-64
2022/09/19 06:25:15;;;;;;;;;;;;;;;8.19;82.05;97964.78;5063566;28;19947;-64
2022/09/19 06:27:46;;;;;;;;;;;;;;;8.24;82.05;97956.59;5081242;28;20009;-61
2022/09/19 06:30:16;;;;;;;;;;;;;;;8.29;81.92;97961.13;5076513;28;19959;-64
2022/09/19 06:33:05;;;;;;;;;;;;;;;8.25;81.92;97966.31;5044440;28;19970;-67
2022/09/19 06:36:07;;;;;;;;;;;;;;;8.29;82.09;97971.97;5049730;28;20442;-67
2022/09/19 06:38:35;;;;;;;;;;;;;;;8.29;82.23;97980.88;5081158;28;19932;-66
2022/09/19 06:41:36;;;;;;;;;;;;;;;8.31;82.09;97994.13;5063709;28;19966;-68
2022/09/19 06:44:20;;;;;;;;;;;;;;;8.31;81.87;97996.81;5049700;28;19956;-64
2022/09/19 06:47:09;;;;;;;;;;;;;;;8.32;81.62;98006.56;5031637;28;20266;-67
2022/09/19 06:49:53;;;;;;;;;;;;;;;8.42;81.69;98005.66;5065687;28;19933;-63
2022/09/19 06:52:46;;;;;;;;;;;;;;;8.43;81.39;98001.84;5065494;28;20023;-66
2022/09/19 06:55:14;;;;;;;;;;;;;;;8.47;81.48;98013.66;5086577;28;19932;-63
2022/09/19 06:57:53;;;;;;;;;;;;;;;8.48;81.32;98016.09;5079886;28;19932;-57
2022/09/19 07:00:46;;;;;;;;;;;;;;;8.57;81.38;98016.22;5068167;28;19924;-66
2022/09/19 07:03:42;;;;;;;;;;;;;;;8.55;81.27;98029.25;5062273;28;19924;-66
2022/09/19 07:06:15;;;;;;;;;;;;;;;8.56;81.05;98045.19;5051074;28;19929;-66
2022/09/19 07:08:58;;;;;;;;;;;;;;;8.55;81.28;98040.88;5069658;28;19928;-66
2022/09/19 07:11:26;;;;;;;;;;;;;;;8.63;81.30;98039.44;5068532;28;19930;-66
2022/09/19 07:13:58;;;;;;;;;;;;;;;8.74;81.40;98040.88;5075595;28;19924;-65
2022/09/19 07:16:27;;;;;;;;;;;;;;;8.71;81.63;98040.66;5066632;28;19925;-66
2022/09/19 07:18:57;;;;;;;;;;;;;;;8.76;81.94;98049.50;5064766;28;19934;-64
2022/09/19 07:22:05;;;;;;;;;;;;;;;8.76;81.90;98059.53;5040688;28;19928;-67
2022/09/19 07:24:51;;;;;;;;;;;;;;;8.67;82.15;98051.25;5044955;28;20396;-64
2022/09/19 07:27:35;;;;;;;;;;;;;;;8.66;82.50;98061.28;5055681;28;19925;-65
2022/09/19 07:30:07;;;;;;;;;;;;;;;8.70;82.58;98066.13;5068879;28;19929;-66
2022/09/19 07:32:47;;;;;;;;;;;;;;;8.70;83.19;98071.53;5067861;28;19931;-65
2022/09/19 07:35:16;;;;;;;;;;;;;;;8.69;83.06;98067.25;5067768;28;19964;-64
2022/09/19 07:37:50;;;;;;;;;;;;;;;8.69;83.36;98078.06;5049781;28;19928;-66
2022/09/19 07:40:34;;;;;;;;;;;;;;;8.69;83.02;98087.00;5068824;28;19924;-59
2022/09/19 07:43:06;;;;;;;;;;;;;;;8.69;82.46;98089.72;5085464;28;20406;-68
2022/09/19 07:45:51;;;;;;;;;;;;;;;8.72;82.17;98089.09;5079303;28;19998;-66
2022/09/19 07:48:39;;;;;;;;;;;;;;;8.74;82.10;98095.03;5064402;28;20309;-65
2022/09/19 07:51:25;;;;;;;;;;;;;;;8.76;82.25;98098.25;5067991;28;20335;-67
2022/09/19 07:53:57;;;;;;;;;;;;;;;8.80;81.89;98099.28;5068053;28;19975;-66
2022/09/19 07:56:35;;;;;;;;;;;;;;;8.82;81.71;98113.31;5078277;28;20333;-66
2022/09/19 07:59:05;;;;;;;;;;;;;;;8.82;81.65;98107.91;5069582;28;19936;-66
2022/09/19 08:02:01;;;;;;;;;;;;;;;8.87;81.27;98115.16;5082149;28;20022;-65
2022/09/19 08:04:34;;;;;;;;;;;;;;;8.95;81.88;98121.78;5066404;28;19924;-63
2022/09/19 08:07:03;;;;;;;;;;;;;;;9.02;81.23;98119.53;5060878;28;19970;-65
2022/09/19 08:09:33;;;;;;;;;;;;;;;9.11;80.99;98120.47;5081081;28;19947;-66
2022/09/19 08:12:12;;;;;;;;;;;;;;;9.18;80.81;98110.84;5068032;28;19978;-66
2022/09/19 08:14:45;;;;;;;;;;;;;;;9.25;80.48;98112.38;5068160;28;20274;-62
2022/09/19 08:17:14;;;;;;;;;;;;;;;9.32;80.49;98116.31;5084629;28;20046;-66
2022/09/19 08:19:45;;;;;;;;;;;;;;;9.42;80.08;98126.97;5065100;28;19924;-65
2022/09/19 08:22:16;;;;;;;;;;;;;;;9.45;79.51;98120.94;5067434;28;19924;-65
2022/09/19 08:24:53;;;;;;;;;;;;;;;9.55;78.82;98128.09;5064011;28;20039;-63
2022/09/19 08:27:22;;;;;;;;;;;;;;;9.62;78.57;98125.00;5066946;28;19937;-63
2022/09/19 08:30:16;;;;;;;;;;;;;;;9.82;77.97;98138.19;5083102;28;19924;-66
2022/09/19 08:32:44;;;;;;;;;;;;;;;9.76;77.60;98135.88;5051722;28;19924;-66
2022/09/19 08:35:14;;;;;;;;;;;;;;;9.78;77.38;98139.88;5067525;28;20380;-61
2022/09/19 08:37:44;;;;;;;;;;;;;;;9.84;77.66;98140.59;5066367;28;19925;-63
2022/09/19 08:40:19;;;;;;;;;;;;;;;9.91;76.89;98144.53;5065256;28;19982;-58
2022/09/19 08:42:52;;;;;;;;;;;;;;;9.97;76.72;98137.09;5073775;28;20007;-65
2022/09/19 08:45:23;;;;;;;;;;;;;;;10.04;75.57;98147.53;5049670;28;20447;-64
2022/09/19 08:47:54;;;;;;;;;;;;;;;10.17;75.93;98152.16;5083169;28;20044;-65
2022/09/19 08:50:22;;;;;;;;;;;;;;;10.37;75.55;98151.75;5061339;28;19931;-66
2022/09/19 08:52:52;;;;;;;;;;;;;;;10.48;74.68;98149.63;5082640;28;19950;-64
2022/09/19 08:55:26;;;;;;;;;;;;;;;10.38;73.40;98152.56;5067282;28;19924;-66
2022/09/19 08:57:55;;;;;;;;;;;;;;;10.33;73.53;98166.25;5063685;28;19929;-64
2022/09/19 09:00:31;;;;;;;;;;;;;;;10.29;73.51;98159.84;5067796;28;20384;-65
2022/09/19 09:03:06;;;;;;;;;;;;;;;10.36;73.88;98166.44;5058319;28;19932;-63
2022/09/19 09:06:11;;;;;;;;;;;;;;;10.54;73.99;98164.72;5067265;28;19931;-66
2022/09/19 09:08:43;;;;;;;;;;;;;;;10.69;71.98;98172.53;5082043;28;20285;-63
2022/09/19 09:11:27;;;;;;;;;;;;;;;10.62;72.19;98174.06;5065621;28;21120;-66
2022/09/19 09:13:58;;;;;;;;;;;;;;;10.62;72.09;98168.63;5062265;28;19928;-63
2022/09/19 09:16:38;;;;;;;;;;;;;;;10.63;72.49;98186.53;5080965;28;20280;-67
2022/09/19 09:19:18;;;;;;;;;;;;;;;10.56;70.99;98176.09;5083391;28;19970;-64
2022/09/19 09:21:48;;;;;;;;;;;;;;;10.57;71.47;98185.03;5064648;28;19925;-58
2022/09/19 09:24:25;;;;;;;;;;;;;;;10.67;72.15;98185.63;5066372;28;19932;-66
2022/09/19 09:27:47;;;;;;;;;;;;;;;10.78;71.02;98188.94;5067544;28;20020;-66
2022/09/19 09:30:25;;;;;;;;;;;;;;;10.90;71.19;98194.63;5063736;28;19925;-65
2022/09/19 09:32:58;;;;;;;;;;;;;;;10.93;70.58;98195.94;5067786;28;20368;-65
2022/09/19 09:35:36;;;;;;;;;;;;;;;10.96;70.06;98198.84;5081928;28;20012;-66
2022/09/19 09:38:12;;;;;;;;;;;;;;;11.01;70.22;98200.63;5044136;28;19946;-66
2022/09/19 09:43:31;;;;;;;;;;;;;;;11.06;70.69;98202.44;5050549;28;20014;-66
2022/09/19 09:46:00;;;;;;;;;;;;;;;11.09;70.29;98210.78;5065278;28;19928;-62
2022/09/19 09:48:31;;;;;;;;;;;;;;;11.18;70.39;98205.41;5064859;28;19932;-66
2022/09/19 09:51:04;;;;;;;;;;;;;;;11.19;70.24;98207.03;5075085;28;19977;-65
2022/09/19 09:53:40;;;;;;;;;;;;;;;11.23;70.46;98206.09;5066488;28;19931;-66
2022/09/19 09:56:15;;;;;;;;;;;;;;;11.24;70.63;98206.94;5065283;28;20411;-62
2022/09/19 09:58:55;;;;;;;;;;;;;;;11.29;70.34;98214.94;5063604;28;19975;-65
2022/09/19 10:04:15;;;;;;;;;;;;;;;11.25;69.53;98208.53;5077799;28;19956;-66
2022/09/19 10:06:53;;;;;;;;;;;;;;;11.25;69.64;98220.22;5065360;28;19924;-66
2022/09/19 10:09:24;;;;;;;;;;;;;;;11.30;69.90;98222.00;5066230;28;19925;-66
2022/09/19 10:11:57;;;;;;;;;;;;;;;11.32;68.72;98230.66;5063170;28;19925;-67
2022/09/19 10:14:46;;;;;;;;;;;;;;;11.28;68.53;98221.50;5067438;28;20015;-66
2022/09/19 10:17:49;;;;;;;;;;;;;;;11.32;68.64;98218.97;5060099;28;19925;-57
2022/09/19 10:20:22;;;;;;;;;;;;;;;11.39;68.30;98217.41;5069287;28;19974;-66
2022/09/19 10:22:54;;;;;;;;;;;;;;;11.45;68.55;98218.09;5069936;28;20441;-66
2022/09/19 10:25:26;;;;;;;;;;;;;;;11.53;68.28;98225.53;5069282;28;19930;-66
2022/09/19 10:27:56;;;;;;;;;;;;;;;11.62;68.48;98222.88;5085173;28;19925;-66
2022/09/19 10:30:41;;;;;;;;;;;;;;;11.72;67.90;98228.06;5066810;28;19967;-67
2022/09/19 10:33:25;;;;;;;;;;;;;;;11.82;68.03;98221.56;5075744;28;19932;-64
2022/09/19 10:35:58;;;;;;;;;;;;;;;11.82;67.90;98227.81;5084893;28;19928;-66
2022/09/19 10:38:27;;;;;;;;;;;;;;;11.83;68.00;98224.00;5068430;28;19924;-67
2022/09/19 10:40:58;;;;;;;;;;;;;;;11.84;68.39;98224.81;5067250;28;20274;-66
2022/09/19 10:43:37;;;;;;;;;;;;;;;11.74;67.69;98225.81;5069059;28;19925;-67
2022/09/19 10:46:06;;;;;;;;;;;;;;;11.66;68.25;98224.63;5068936;28;19974;-67
2022/09/19 10:49:05;;;;;;;;;;;;;;;11.65;68.77;98222.25;5069147;28;19936;-68
2022/09/19 10:51:36;;;;;;;;;;;;;;;11.66;69.12;98221.91;5063133;28;19974;-65
2022/09/19 10:54:09;;;;;;;;;;;;;;;11.80;69.09;98230.03;5064820;28;20419;-62
2022/09/19 10:56:37;;;;;;;;;;;;;;;11.90;68.74;98235.25;5066143;28;19924;-64
2022/09/19 10:59:07;;;;;;;;;;;;;;;11.96;68.84;98223.09;5069247;28;19931;-67
2022/09/19 11:01:41;;;;;;;;;;;;;;;12.07;68.98;98229.06;5079611;28;20437;-66
2022/09/19 11:04:25;;;;;;;;;;;;;;;12.17;68.32;98233.44;5067912;28;19932;-66
2022/09/19 11:06:57;;;;;;;;;;;;;;;12.24;68.00;98223.69;5084972;28;20368;-67
2022/09/19 11:09:34;;;;;;;;;;;;;;;12.18;68.14;98224.97;5066583;28;19932;-63
2022/09/19 11:12:03;;;;;;;;;;;;;;;11.98;69.93;98242.63;5067367;28;20341;-67
2022/09/19 11:14:37;;;;;;;;;;;;;;;11.80;69.91;98246.34;5069054;28;19924;-64
2022/09/19 11:17:25;;;;;;;;;;;;;;;11.66;72.75;98251.84;5082214;28;19964;-65
2022/09/19 11:20:01;;;;;;;;;;;;;;;11.61;72.24;98248.44;5065278;28;20372;-65
2022/09/19 11:22:38;;;;;;;;;;;;;;;11.71;72.35;98250.94;5068698;28;19928;-67
2022/09/19 11:25:12;;;;;;;;;;;;;;;11.91;72.08;98247.72;5084838;28;19995;-67
2022/09/19 11:27:51;;;;;;;;;;;;;;;11.92;71.21;98249.34;5052852;28;19932;-63
2022/09/19 11:30:24;;;;;;;;;;;;;;;11.94;70.66;98243.59;5067186;28;19925;-65
2022/09/19 11:33:16;;;;;;;;;;;;;;;12.14;70.84;98247.69;5066265;28;19931;-66
2022/09/19 11:36:27;;;;;;;;;;;;;;;12.30;69.29;98232.53;5062362;28;19928;-67
2022/09/19 11:39:03;;;;;;;;;;;;;;;12.27;70.08;98233.19;5081946;28;19924;-66
2022/09/19 11:41:54;;;;;;;;;;;;;;;12.22;70.18;98238.75;5064855;28;19934;-66
2022/09/19 11:44:39;;;;;;;;;;;;;;;12.30;70.55;98237.97;5066224;28;20225;-66
2022/09/19 11:47:14;;;;;;;;;;;;;;;12.32;70.22;98238.50;5084840;28;19940;-66
2022/09/19 11:49:52;;;;;;;;;;;;;;;12.26;69.57;98237.03;5066938;28;19924;-67
2022/09/19 11:52:26;;;;;;;;;;;;;;;12.18;69.80;98235.84;5066410;28;19929;-65
2022/09/19 11:54:59;;;;;;;;;;;;;;;12.16;69.74;98232.66;5081807;28;19964;-66
2022/09/19 11:57:35;;;;;;;;;;;;;;;12.18;69.48;98224.16;5070278;28;19925;-67
2022/09/19 12:00:08;;;;;;;;;;;;;;;12.22;69.18;98227.88;5066378;28;19928;-67
2022/09/19 12:03:26;;;;;;;;;;;;;;;12.21;68.80;98224.34;5065136;28;19925;-66
2022/09/19 12:06:33;;;;;;;;;;;;;;;12.21;69.10;98218.09;5064705;28;19953;-66
2022/09/19 12:09:12;;;;;;;;;;;;;;;12.24;68.76;98220.16;5079382;28;20373;-67
2022/09/19 12:12:11;;;;;;;;;;;;;;;12.24;68.97;98212.00;5075777;28;19928;-64
2022/09/19 12:15:18;;;;;;;;;;;;;;;12.33;68.94;98221.03;5057078;28;19928;-67
2022/09/19 12:17:50;;;;;;;;;;;;;;;12.43;68.82;98215.28;5084977;28;19925;-67
2022/09/19 12:20:30;;;;;;;;;;;;;;;12.44;67.93;98210.63;5064333;28;20019;-67
2022/09/19 12:24:52;;;;;;;;;;;;;;;12.35;66.45;98212.53;5065164;28;19928;-66
2022/09/19 12:25:50;;;;;;;;;;;;;;;12.34;66.86;98211.72;5066464;28;19934;-66
2022/09/19 12:28:19;;;;;;;;;;;;;;;12.36;66.58;98206.78;5067116;28;19928;-67
2022/09/19 12:30:49;;;;;;;;;;;;;;;12.41;66.72;98198.47;5077838;28;19961;-59
2022/09/19 12:33:23;;;;;;;;;;;;;;;12.44;66.54;98200.53;5082365;28;20023;-67
2022/09/19 12:35:52;;;;;;;;;;;;;;;12.47;66.62;98204.56;5083075;28;20337;-68
2022/09/19 12:38:22;;;;;;;;;;;;;;;12.49;65.86;98194.16;5064356;28;19924;-67
2022/09/19 12:41:14;;;;;;;;;;;;;;;12.48;66.20;98192.53;5061073;28;20012;-66
2022/09/19 12:43:48;;;;;;;;;;;;;;;12.46;66.29;98198.28;5065562;28;20359;-67
2022/09/19 12:46:27;;;;;;;;;;;;;;;12.40;65.51;98199.56;5063236;28;19933;-67
2022/09/19 12:49:02;;;;;;;;;;;;;;;12.40;66.15;98191.38;5063305;28;19970;-68
2022/09/19 12:51:46;;;;;;;;;;;;;;;12.43;66.18;98193.50;5062971;28;19959;-67
2022/09/19 12:54:15;;;;;;;;;;;;;;;12.40;66.27;98193.31;5065420;28;19929;-66
2022/09/19 12:56:48;;;;;;;;;;;;;;;12.36;68.13;98187.72;5068429;28;19964;-67
2022/09/19 12:59:43;;;;;;;;;;;;;;;12.52;68.89;98179.91;5066360;28;19924;-67
2022/09/19 13:02:19;;;;;;;;;;;;;;;12.69;68.94;98185.38;5063475;28;19928;-66
2022/09/19 13:04:49;;;;;;;;;;;;;;;12.75;69.07;98180.56;5065427;28;19936;-64
2022/09/19 13:07:18;;;;;;;;;;;;;;;12.93;69.13;98178.66;5066989;28;19931;-67
2022/09/19 13:09:49;;;;;;;;;;;;;;;12.92;68.73;98166.16;5065413;28;19978;-60
2022/09/19 13:12:22;;;;;;;;;;;;;;;12.94;68.28;98174.81;5052939;28;20280;-64
2022/09/19 13:14:52;;;;;;;;;;;;;;;12.88;67.69;98170.63;5080539;28;19928;-68
2022/09/19 13:25:48;;;;;;;;;;;;;;;13.03;66.26;98165.50;5047464;28;20278;-66
2022/09/19 13:28:27;;;;;;;;;;;;;;;13.20;65.76;98153.78;5065893;28;19975;-67
2022/09/19 13:30:59;;;;;;;;;;;;;;;13.35;65.24;98163.44;5065636;28;19950;-66
2022/09/19 13:33:34;;;;;;;;;;;;;;;13.46;65.70;98164.69;5067670;28;19928;-67
2022/09/19 13:36:06;;;;;;;;;;;;;;;13.52;63.49;98168.06;5062786;28;20792;-64
2022/09/19 13:38:38;;;;;;;;;;;;;;;13.45;64.03;98174.00;5066366;28;19956;-66
2022/09/19 13:41:06;;;;;;;;;;;;;;;13.29;63.58;98178.38;5065374;28;19929;-67
2022/09/19 13:43:39;;;;;;;;;;;;;;;13.08;63.95;98175.47;5064997;28;20455;-61
2022/09/19 13:46:10;;;;;;;;;;;;;;;12.96;64.39;98178.03;5062935;28;20309;-66
2022/09/19 13:48:45;;;;;;;;;;;;;;;12.79;65.59;98211.53;5065683;28;20019;-67
2022/09/19 13:51:32;;;;;;;;;;;;;;;12.21;71.32;98213.44;5061849;28;19932;-66
2022/09/19 13:54:15;;;;;;;;;;;;;;;11.57;74.63;98214.84;5065637;28;20048;-68
2022/09/19 13:56:43;;;;;;;;;;;;;;;11.21;76.74;98219.22;5070192;28;19932;-62
2022/09/19 13:59:18;;;;;;;;;;;;;;;11.09;77.77;98221.66;5067740;28;20381;-65
2022/09/19 14:01:55;;;;;;;;;;;;;;;11.08;77.66;98221.97;5068266;28;19939;-65